sensor_id;sensor_type;location;lat;lon;timestamp;pressure;altitude;pressure_sealevel;temperature;humidity
68226;BME280;55045;49.410;11.030;2023-02-01T00:00:44;98510.06;;;2.83;100.00
68226;BME280;55045;49.410;11.030;2023-02-01T00:03:48;98511.78;;;2.82;100.00
68226;BME280;55045;49.410;11.030;2023-02-01T00:06:53;98504.09;;;2.81;100.00
68226;BME280;55045;49.410;11.030;2023-02-01T00:09:57;98511.69;;;2.90;100.00
68226;BME280;55045;49.410;11.030;2023-02-01T00:13:00;98504.78;;;2.95;100.00
68226;BME280;55045;49.410;11.030;2023-02-01T00:16:05;98488.69;;;2.84;100.00
68226;BME280;55045;49.410;11.030;2023-02-01T00:19:13;98471.72;;;2.75;100.00
68226;BME280;55045;49.410;11.030;2023-02-01T00:22:19;98465.78;;;2.72;100.00
68226;BME280;55045;49.410;11.030;2023-02-01T00:25:22;98496.28;;;2.93;100.00
68226;BME280;55045;49.410;11.030;2023-02-01T00:28:26;98481.00;;;2.84;100.00
68226;BME280;55045;49.410;11.030;2023-02-01T00:31:29;98490.41;;;2.86;100.00
68226;BME280;55045;49.410;11.030;2023-02-01T00:34:33;98499.72;;;2.92;100.00
68226;BME280;55045;49.410;11.030;2023-02-01T00:37:38;98503.03;;;3.00;100.00
68226;BME280;55045;49.410;11.030;2023-02-01T00:40:42;98484.19;;;3.04;100.00
68226;BME280;55045;49.410;11.030;2023-02-01T00:43:46;98485.91;;;3.04;100.00
68226;BME280;55045;49.410;11.030;2023-02-01T00:46:50;98491.84;;;3.07;100.00
68226;BME280;55045;49.410;11.030;2023-02-01T00:49:54;98511.50;;;3.05;100.00
68226;BME280;55045;49.410;11.030;2023-02-01T00:52:59;98446.94;;;2.76;100.00
68226;BME280;55045;49.410;11.030;2023-02-01T00:56:04;98499.53;;;3.06;100.00
68226;BME280;55045;49.410;11.030;2023-02-01T00:59:11;98487.69;;;2.99;100.00
68226;BME280;55045;49.410;11.030;2023-02-01T01:02:16;98462.19;;;2.88;100.00
68226;BME280;55045;49.410;11.030;2023-02-01T01:05:20;98485.94;;;3.01;100.00
68226;BME280;55045;49.410;11.030;2023-02-01T01:08:25;98479.06;;;3.04;100.00
68226;BME280;55045;49.410;11.030;2023-02-01T01:11:30;98455.50;;;2.75;100.00
68226;BME280;55045;49.410;11.030;2023-02-01T01:14:34;98476.63;;;2.94;100.00
68226;BME280;55045;49.410;11.030;2023-02-01T01:17:38;98481.72;;;2.98;100.00
68226;BME280;55045;49.410;11.030;2023-02-01T01:20:41;98482.66;;;2.91;100.00
68226;BME280;55045;49.410;11.030;2023-02-01T01:23:46;98412.97;;;2.62;100.00
68226;BME280;55045;49.410;11.030;2023-02-01T01:26:50;98494.53;;;2.95;100.00
68226;BME280;55045;49.410;11.030;2023-02-01T01:29:54;98481.84;;;2.86;100.00
68226;BME280;55045;49.410;11.030;2023-02-01T01:32:58;98491.31;;;2.81;100.00
68226;BME280;55045;49.410;11.030;2023-02-01T01:36:04;98483.69;;;2.76;100.00
68226;BME280;55045;49.410;11.030;2023-02-01T01:39:09;98499.84;;;2.80;100.00
68226;BME280;55045;49.410;11.030;2023-02-01T01:42:12;98486.97;;;2.84;100.00
68226;BME280;55045;49.410;11.030;2023-02-01T01:45:24;98498.00;;;2.91;100.00
68226;BME280;55045;49.410;11.030;2023-02-01T01:48:29;98483.53;;;2.88;100.00
68226;BME280;55045;49.410;11.030;2023-02-01T01:51:38;98469.13;;;2.80;100.00
68226;BME280;55045;49.410;11.030;2023-02-01T01:54:47;98475.81;;;2.90;100.00
68226;BME280;55045;49.410;11.030;2023-02-01T01:57:56;98463.94;;;2.84;100.00
68226;BME280;55045;49.410;11.030;2023-02-01T02:01:02;98438.44;;;2.77;100.00
68226;BME280;55045;49.410;11.030;2023-02-01T02:04:06;98470.69;;;2.92;100.00
68226;BME280;55045;49.410;11.030;2023-02-01T02:07:14;98425.66;;;2.72;100.00
68226;BME280;55045;49.410;11.030;2023-02-01T02:10:20;98456.97;;;2.94;100.00
68226;BME280;55045;49.410;11.030;2023-02-01T02:13:46;98432.38;;;2.82;100.00
68226;BME280;55045;49.410;11.030;2023-02-01T02:17:07;98428.16;;;2.75;100.00
68226;BME280;55045;49.410;11.030;2023-02-01T02:20:27;98465.53;;;2.93;100.00
68226;BME280;55045;49.410;11.030;2023-02-01T02:27:29;98452.78;;;2.90;100.00
68226;BME280;55045;49.410;11.030;2023-02-01T02:30:45;98410.34;;;2.69;100.00
68226;BME280;55045;49.410;11.030;2023-02-01T02:34:07;98409.44;;;2.72;100.00
68226;BME280;55045;49.410;11.030;2023-02-01T02:37:24;98433.06;;;2.95;100.00
68226;BME280;55045;49.410;11.030;2023-02-01T02:40:32;98435.72;;;2.87;100.00
68226;BME280;55045;49.410;11.030;2023-02-01T02:43:46;98435.63;;;2.94;100.00
68226;BME280;55045;49.410;11.030;2023-02-01T02:47:13;98449.38;;;2.88;100.00
68226;BME280;55045;49.410;11.030;2023-02-01T02:50:35;98444.41;;;2.74;100.00
68226;BME280;55045;49.410;11.030;2023-02-01T02:54:02;98450.28;;;2.84;100.00
68226;BME280;55045;49.410;11.030;2023-02-01T02:57:24;98429.81;;;2.81;100.00
68226;BME280;55045;49.410;11.030;2023-02-01T03:00:47;98448.53;;;2.86;100.00
68226;BME280;55045;49.410;11.030;2023-02-01T03:04:09;98424.84;;;2.69;100.00
68226;BME280;55045;49.410;11.030;2023-02-01T03:07:53;98441.81;;;2.76;100.00
68226;BME280;55045;49.410;11.030;2023-02-01T03:11:01;98429.91;;;2.73;100.00
68226;BME280;55045;49.410;11.030;2023-02-01T03:14:06;98429.16;;;2.64;100.00
68226;BME280;55045;49.410;11.030;2023-02-01T03:17:13;98409.59;;;2.59;100.00
68226;BME280;55045;49.410;11.030;2023-02-01T03:20:21;98423.13;;;2.71;100.00
68226;BME280;55045;49.410;11.030;2023-02-01T03:23:31;98404.47;;;2.59;100.00
68226;BME280;55045;49.410;11.030;2023-02-01T03:26:39;98412.06;;;2.67;100.00
68226;BME280;55045;49.410;11.030;2023-02-01T03:29:48;98396.69;;;2.66;100.00
68226;BME280;55045;49.410;11.030;2023-02-01T03:32:58;98410.22;;;2.78;100.00
68226;BME280;55045;49.410;11.030;2023-02-01T03:36:15;98394.16;;;2.67;100.00
68226;BME280;55045;49.410;11.030;2023-02-01T03:39:29;98402.47;;;2.83;100.00
68226;BME280;55045;49.410;11.030;2023-02-01T03:42:38;98395.72;;;2.79;100.00
68226;BME280;55045;49.410;11.030;2023-02-01T03:45:46;98357.31;;;2.74;100.00
68226;BME280;55045;49.410;11.030;2023-02-01T03:48:52;98397.34;;;2.83;100.00
68226;BME280;55045;49.410;11.030;2023-02-01T03:51:58;98393.75;;;2.96;100.00
68226;BME280;55045;49.410;11.030;2023-02-01T03:55:05;98375.81;;;2.96;100.00
68226;BME280;55045;49.410;11.030;2023-02-01T03:58:12;98358.97;;;2.80;100.00
68226;BME280;55045;49.410;11.030;2023-02-01T04:01:17;98378.34;;;3.01;100.00
68226;BME280;55045;49.410;11.030;2023-02-01T04:04:20;98359.63;;;2.94;100.00
68226;BME280;55045;49.410;11.030;2023-02-01T04:07:27;98358.94;;;2.83;100.00
68226;BME280;55045;49.410;11.030;2023-02-01T04:10:35;98330.88;;;2.74;100.00
68226;BME280;55045;49.410;11.030;2023-02-01T04:13:39;98361.31;;;2.95;100.00
68226;BME280;55045;49.410;11.030;2023-02-01T04:16:42;98354.47;;;2.97;100.00
68226;BME280;55045;49.410;11.030;2023-02-01T04:19:46;98332.44;;;2.84;100.00
68226;BME280;55045;49.410;11.030;2023-02-01T04:22:49;98354.47;;;2.97;100.00
68226;BME280;55045;49.410;11.030;2023-02-01T04:25:59;98361.25;;;3.01;100.00
68226;BME280;55045;49.410;11.030;2023-02-01T04:29:03;98351.78;;;3.05;100.00
68226;BME280;55045;49.410;11.030;2023-02-01T04:34:27;98357.75;;;3.05;100.00
68226;BME280;55045;49.410;11.030;2023-02-01T04:37:31;98352.59;;;3.08;100.00
68226;BME280;55045;49.410;11.030;2023-02-01T04:40:34;98345.78;;;3.07;100.00
68226;BME280;55045;49.410;11.030;2023-02-01T04:43:39;98349.25;;;3.03;100.00
68226;BME280;55045;49.410;11.030;2023-02-01T04:46:44;98341.81;;;2.85;100.00
68226;BME280;55045;49.410;11.030;2023-02-01T04:49:49;98350.53;;;2.72;100.00
68226;BME280;55045;49.410;11.030;2023-02-01T04:52:53;98341.22;;;2.68;100.00
68226;BME280;55045;49.410;11.030;2023-02-01T04:55:56;98360.75;;;2.73;100.00
68226;BME280;55045;49.410;11.030;2023-02-01T04:59:00;98364.41;;;2.57;100.00
68226;BME280;55045;49.410;11.030;2023-02-01T05:02:04;98368.66;;;2.58;100.00
68226;BME280;55045;49.410;11.030;2023-02-01T05:05:09;98368.69;;;2.56;100.00
68226;BME280;55045;49.410;11.030;2023-02-01T05:08:13;98350.09;;;2.39;100.00
68226;BME280;55045;49.410;11.030;2023-02-01T05:11:16;98375.50;;;2.54;100.00
68226;BME280;55045;49.410;11.030;2023-02-01T05:14:33;98351.78;;;2.42;100.00
68226;BME280;55045;49.410;11.030;2023-02-01T05:17:37;98362.69;;;2.54;100.00
68226;BME280;55045;49.410;11.030;2023-02-01T05:20:43;98357.56;;;2.54;100.00
68226;BME280;55045;49.410;11.030;2023-02-01T05:23:47;98334.69;;;2.45;100.00
68226;BME280;55045;49.410;11.030;2023-02-01T05:27:09;98350.00;;;2.48;100.00
68226;BME280;55045;49.410;11.030;2023-02-01T05:30:13;98358.47;;;2.52;100.00
68226;BME280;55045;49.410;11.030;2023-02-01T05:33:17;98360.22;;;2.48;100.00
68226;BME280;55045;49.410;11.030;2023-02-01T05:36:22;98380.75;;;2.45;100.00
68226;BME280;55045;49.410;11.030;2023-02-01T05:39:25;98385.88;;;2.45;100.00
68226;BME280;55045;49.410;11.030;2023-02-01T05:42:29;98379.88;;;2.45;100.00
68226;BME280;55045;49.410;11.030;2023-02-01T05:45:32;98381.66;;;2.41;100.00
68226;BME280;55045;49.410;11.030;2023-02-01T05:48:36;98391.84;;;2.44;100.00
68226;BME280;55045;49.410;11.030;2023-02-01T05:51:41;98394.44;;;2.41;100.00
68226;BME280;55045;49.410;11.030;2023-02-01T05:54:45;98371.59;;;2.24;100.00
68226;BME280;55045;49.410;11.030;2023-02-01T05:57:49;98395.38;;;2.36;100.00
68226;BME280;55045;49.410;11.030;2023-02-01T06:00:52;98369.84;;;2.28;100.00
68226;BME280;55045;49.410;11.030;2023-02-01T06:03:56;98374.94;;;2.29;100.00
68226;BME280;55045;49.410;11.030;2023-02-01T06:07:01;98399.69;;;2.29;100.00
68226;BME280;55045;49.410;11.030;2023-02-01T06:10:05;98378.41;;;2.25;100.00
68226;BME280;55045;49.410;11.030;2023-02-01T06:13:09;98359.03;;;2.01;100.00
68226;BME280;55045;49.410;11.030;2023-02-01T06:16:12;98358.06;;;2.13;100.00
68226;BME280;55045;49.410;11.030;2023-02-01T06:19:17;98379.28;;;2.26;100.00
68226;BME280;55045;49.410;11.030;2023-02-01T06:22:22;98350.56;;;1.96;100.00
68226;BME280;55045;49.410;11.030;2023-02-01T06:25:25;98348.81;;;2.01;100.00
68226;BME280;55045;49.410;11.030;2023-02-01T06:28:30;98364.06;;;2.11;100.00
68226;BME280;55045;49.410;11.030;2023-02-01T06:31:34;98364.06;;;2.11;100.00
68226;BME280;55045;49.410;11.030;2023-02-01T06:34:37;98364.03;;;2.15;100.00
68226;BME280;55045;49.410;11.030;2023-02-01T06:37:42;98357.25;;;2.10;100.00
68226;BME280;55045;49.410;11.030;2023-02-01T06:40:52;98355.50;;;2.15;100.00
68226;BME280;55045;49.410;11.030;2023-02-01T06:43:55;98369.19;;;2.11;100.00
68226;BME280;55045;49.410;11.030;2023-02-01T06:46:59;98363.19;;;2.13;100.00
68226;BME280;55045;49.410;11.030;2023-02-01T06:50:03;98368.31;;;2.15;100.00
68226;BME280;55045;49.410;11.030;2023-02-01T06:53:08;98361.41;;;2.20;100.00
68226;BME280;55045;49.410;11.030;2023-02-01T06:56:12;98335.13;;;2.04;100.00
68226;BME280;55045;49.410;11.030;2023-02-01T06:59:15;98359.78;;;2.11;100.00
68226;BME280;55045;49.410;11.030;2023-02-01T07:02:18;98356.38;;;2.11;100.00
68226;BME280;55045;49.410;11.030;2023-02-01T07:05:22;98358.91;;;2.17;100.00
68226;BME280;55045;49.410;11.030;2023-02-01T07:08:28;98369.88;;;2.23;100.00
68226;BME280;55045;49.410;11.030;2023-02-01T07:11:32;98362.28;;;2.19;100.00
68226;BME280;55045;49.410;11.030;2023-02-01T07:14:35;98358.56;;;2.46;100.00
68226;BME280;55045;49.410;11.030;2023-02-01T07:17:39;98336.81;;;2.07;100.00
68226;BME280;55045;49.410;11.030;2023-02-01T07:20:42;98361.25;;;2.34;100.00
68226;BME280;55045;49.410;11.030;2023-02-01T07:23:47;98368.88;;;2.38;100.00
68226;BME280;55045;49.410;11.030;2023-02-01T07:26:51;98371.38;;;2.46;100.00
68226;BME280;55045;49.410;11.030;2023-02-01T07:29:54;98355.06;;;2.51;100.00
68226;BME280;55045;49.410;11.030;2023-02-01T07:32:58;98355.16;;;2.45;100.00
68226;BME280;55045;49.410;11.030;2023-02-01T07:36:05;98358.44;;;2.56;100.00
68226;BME280;55045;49.410;11.030;2023-02-01T07:39:11;98354.19;;;2.52;100.00
68226;BME280;55045;49.410;11.030;2023-02-01T07:42:15;98355.03;;;2.54;100.00
68226;BME280;55045;49.410;11.030;2023-02-01T07:45:19;98360.75;;;2.73;100.00
68226;BME280;55045;49.410;11.030;2023-02-01T07:48:24;98352.31;;;2.67;100.00
68226;BME280;55045;49.410;11.030;2023-02-01T07:51:27;98345.38;;;2.76;100.00
68226;BME280;55045;49.410;11.030;2023-02-01T07:54:32;98330.81;;;2.80;100.00
68226;BME280;55045;49.410;11.030;2023-02-01T07:57:36;98329.97;;;2.78;100.00
68226;BME280;55045;49.410;11.030;2023-02-01T08:00:39;98324.00;;;2.76;100.00
68226;BME280;55045;49.410;11.030;2023-02-01T08:04:01;98322.31;;;2.75;100.00
68226;BME280;55045;49.410;11.030;2023-02-01T08:07:05;98328.25;;;2.78;100.00
68226;BME280;55045;49.410;11.030;2023-02-01T08:10:10;98330.00;;;2.76;100.00
68226;BME280;55045;49.410;11.030;2023-02-01T08:13:13;98308.00;;;2.62;100.00
68226;BME280;55045;49.410;11.030;2023-02-01T08:16:19;98273.25;;;2.42;100.00
68226;BME280;55045;49.410;11.030;2023-02-01T08:19:23;98268.19;;;2.39;100.00
68226;BME280;55045;49.410;11.030;2023-02-01T08:22:31;98335.84;;;2.84;100.00
68226;BME280;55045;49.410;11.030;2023-02-01T08:25:35;98325.44;;;2.95;100.00
68226;BME280;55045;49.410;11.030;2023-02-01T08:28:40;98315.94;;;3.03;100.00
68226;BME280;55045;49.410;11.030;2023-02-01T08:31:44;98313.25;;;3.12;100.00
68226;BME280;55045;49.410;11.030;2023-02-01T08:34:48;98331.97;;;3.17;100.00
68226;BME280;55045;49.410;11.030;2023-02-01T08:37:51;98336.28;;;3.14;100.00
68226;BME280;55045;49.410;11.030;2023-02-01T08:40:56;98283.94;;;2.73;100.00
68226;BME280;55045;49.410;11.030;2023-02-01T08:44:00;98351.63;;;3.17;100.00
68226;BME280;55045;49.410;11.030;2023-02-01T08:47:03;98260.28;;;2.57;100.00
68226;BME280;55045;49.410;11.030;2023-02-01T08:50:08;98347.38;;;3.14;100.00
68226;BME280;55045;49.410;11.030;2023-02-01T08:53:12;98336.28;;;3.14;100.00
68226;BME280;55045;49.410;11.030;2023-02-01T08:56:18;98354.88;;;3.27;100.00
68226;BME280;55045;49.410;11.030;2023-02-01T08:59:22;98360.78;;;3.32;100.00
68226;BME280;55045;49.410;11.030;2023-02-01T09:02:28;98330.91;;;3.31;100.00
68226;BME280;55045;49.410;11.030;2023-02-01T09:05:32;98353.13;;;3.30;100.00
68226;BME280;55045;49.410;11.030;2023-02-01T09:08:50;98355.59;;;3.35;100.00
68226;BME280;55045;49.410;11.030;2023-02-01T09:11:55;98356.63;;;3.25;100.00
68226;BME280;55045;49.410;11.030;2023-02-01T09:14:59;98367.94;;;3.11;100.00
68226;BME280;55045;49.410;11.030;2023-02-01T09:18:03;98384.53;;;2.83;100.00
68226;BME280;55045;49.410;11.030;2023-02-01T09:21:09;98402.53;;;2.80;100.00
68226;BME280;55045;49.410;11.030;2023-02-01T09:24:13;98415.31;;;2.81;100.00
68226;BME280;55045;49.410;11.030;2023-02-01T09:27:18;98428.97;;;2.80;100.00
68226;BME280;55045;49.410;11.030;2023-02-01T09:30:21;98437.78;;;2.58;100.00
68226;BME280;55045;49.410;11.030;2023-02-01T09:33:26;98422.97;;;2.06;100.00
68226;BME280;55045;49.410;11.030;2023-02-01T09:36:31;98441.09;;;1.80;100.00
68226;BME280;55045;49.410;11.030;2023-02-01T09:39:34;98470.00;;;1.88;100.00
68226;BME280;55045;49.410;11.030;2023-02-01T09:42:59;98448.97;;;1.50;100.00
68226;BME280;55045;49.410;11.030;2023-02-01T09:46:18;98435.28;;;1.60;100.00
68226;BME280;55045;49.410;11.030;2023-02-01T09:49:27;98428.44;;;1.60;100.00
68226;BME280;55045;49.410;11.030;2023-02-01T09:52:36;98445.34;;;1.81;100.00
68226;BME280;55045;49.410;11.030;2023-02-01T09:55:45;98459.47;;;2.25;100.00
68226;BME280;55045;49.410;11.030;2023-02-01T09:58:56;98458.72;;;2.15;100.00
68226;BME280;55045;49.410;11.030;2023-02-01T10:02:08;98453.41;;;2.35;100.00
68226;BME280;55045;49.410;11.030;2023-02-01T10:05:15;98482.34;;;3.15;100.00
68226;BME280;55045;49.410;11.030;2023-02-01T10:08:25;98487.31;;;3.26;100.00
68226;BME280;55045;49.410;11.030;2023-02-01T10:11:42;98484.66;;;3.34;100.00
68226;BME280;55045;49.410;11.030;2023-02-01T10:15:02;98467.81;;;3.17;100.00
68226;BME280;55045;49.410;11.030;2023-02-01T10:18:37;98486.44;;;3.30;100.00
68226;BME280;55045;49.410;11.030;2023-02-01T10:21:52;98491.59;;;3.27;100.00
68226;BME280;55045;49.410;11.030;2023-02-01T10:25:04;98494.81;;;3.41;100.00
68226;BME280;55045;49.410;11.030;2023-02-01T10:28:14;98351.63;;;2.52;100.00
68226;BME280;55045;49.410;11.030;2023-02-01T10:34:33;98406.47;;;3.04;100.00
68226;BME280;55045;49.410;11.030;2023-02-01T10:37:41;98406.41;;;3.08;100.00
68226;BME280;55045;49.410;11.030;2023-02-01T10:40:45;98439.19;;;3.48;100.00
68226;BME280;55045;49.410;11.030;2023-02-01T10:43:51;98424.69;;;3.44;100.00
68226;BME280;55045;49.410;11.030;2023-02-01T10:46:56;98389.69;;;3.41;100.00
68226;BME280;55045;49.410;11.030;2023-02-01T10:50:09;98423.25;;;3.82;100.00
68226;BME280;55045;49.410;11.030;2023-02-01T10:53:21;98405.19;;;3.88;100.00
68226;BME280;55045;49.410;11.030;2023-02-01T10:56:28;98411.72;;;4.05;100.00
68226;BME280;55045;49.410;11.030;2023-02-01T10:59:33;98365.97;;;3.81;100.00
68226;BME280;55045;49.410;11.030;2023-02-01T11:02:38;98400.44;;;4.14;100.00
68226;BME280;55045;49.410;11.030;2023-02-01T11:05:47;98402.28;;;4.09;100.00
68226;BME280;55045;49.410;11.030;2023-02-01T11:08:53;98365.00;;;3.87;100.00
68226;BME280;55045;49.410;11.030;2023-02-01T11:11:58;98386.88;;;4.08;100.00
68226;BME280;55045;49.410;11.030;2023-02-01T11:15:14;98372.16;;;4.17;100.00
68226;BME280;55045;49.410;11.030;2023-02-01T11:18:26;98381.28;;;4.33;100.00
68226;BME280;55045;49.410;11.030;2023-02-01T11:21:32;98318.94;;;3.81;100.00
68226;BME280;55045;49.410;11.030;2023-02-01T11:24:36;98364.25;;;4.29;100.00
68226;BME280;55045;49.410;11.030;2023-02-01T11:27:41;98368.72;;;4.18;100.00
68226;BME280;55045;49.410;11.030;2023-02-01T11:30:58;98163.34;;;2.87;100.00
68226;BME280;55045;49.410;11.030;2023-02-01T11:34:08;98277.94;;;3.30;100.00
68226;BME280;55045;49.410;11.030;2023-02-01T11:37:21;98367.31;;;4.02;100.00
68226;BME280;55045;49.410;11.030;2023-02-01T11:40:29;98324.06;;;3.81;100.00
68226;BME280;55045;49.410;11.030;2023-02-01T11:43:37;98349.41;;;3.99;100.00
68226;BME280;55045;49.410;11.030;2023-02-01T11:46:40;98336.09;;;3.79;100.00
68226;BME280;55045;49.410;11.030;2023-02-01T11:49:53;98329.25;;;3.78;100.00
68226;BME280;55045;49.410;11.030;2023-02-01T11:53:28;98356.28;;;3.97;100.00
68226;BME280;55045;49.410;11.030;2023-02-01T11:56:37;98359.63;;;4.02;100.00
68226;BME280;55045;49.410;11.030;2023-02-01T11:59:55;98339.09;;;4.02;100.00
68226;BME280;55045;49.410;11.030;2023-02-01T12:03:37;98326.09;;;4.11;100.00
68226;BME280;55045;49.410;11.030;2023-02-01T12:06:49;98312.34;;;4.14;100.00
68226;BME280;55045;49.410;11.030;2023-02-01T12:10:04;98329.31;;;4.21;100.00
68226;BME280;55045;49.410;11.030;2023-02-01T12:13:17;98352.22;;;4.31;100.00
68226;BME280;55045;49.410;11.030;2023-02-01T12:16:30;98331.97;;;4.16;100.00
68226;BME280;55045;49.410;11.030;2023-02-01T12:19:47;98332.09;;;4.10;100.00
68226;BME280;55045;49.410;11.030;2023-02-01T12:23:09;98297.38;;;3.91;100.00
68226;BME280;55045;49.410;11.030;2023-02-01T12:26:40;98343.91;;;4.17;100.00
68226;BME280;55045;49.410;11.030;2023-02-01T12:30:01;98330.41;;;4.09;100.00
68226;BME280;55045;49.410;11.030;2023-02-01T12:33:11;98327.66;;;4.17;100.00
68226;BME280;55045;49.410;11.030;2023-02-01T12:36:25;98295.31;;;4.10;100.00
68226;BME280;55045;49.410;11.030;2023-02-01T12:39:39;98279.34;;;3.94;100.00
68226;BME280;55045;49.410;11.030;2023-02-01T12:42:48;98299.78;;;4.00;100.00
68226;BME280;55045;49.410;11.030;2023-02-01T12:45:58;98257.38;;;3.81;100.00
68226;BME280;55045;49.410;11.030;2023-02-01T12:49:06;98314.16;;;4.07;100.00
68226;BME280;55045;49.410;11.030;2023-02-01T12:52:17;98315.63;;;4.20;100.00
68226;BME280;55045;49.410;11.030;2023-02-01T12:55:24;98321.53;;;4.24;100.00
68226;BME280;55045;49.410;11.030;2023-02-01T12:58:38;98322.31;;;4.27;100.00
68226;BME280;55045;49.410;11.030;2023-02-01T13:01:48;98307.16;;;4.15;100.00
68226;BME280;55045;49.410;11.030;2023-02-01T13:04:59;98321.63;;;3.22;100.00
68226;BME280;55045;49.410;11.030;2023-02-01T13:08:09;98354.41;;;3.56;33.98
68226;BME280;55045;49.410;11.030;2023-02-01T13:11:18;98319.72;;;3.35;100.00
68226;BME280;55045;49.410;11.030;2023-02-01T13:14:35;98344.16;;;3.56;100.00
68226;BME280;55045;49.410;11.030;2023-02-01T13:17:41;98372.88;;;3.76;100.00
68226;BME280;55045;49.410;11.030;2023-02-01T13:20:54;98342.13;;;3.74;100.00
68226;BME280;55045;49.410;11.030;2023-02-01T13:23:59;98247.78;;;3.44;100.00
68226;BME280;55045;49.410;11.030;2023-02-01T13:27:05;98306.84;;;3.89;100.00
68226;BME280;55045;49.410;11.030;2023-02-01T13:30:18;98322.91;;;3.97;100.00
68226;BME280;55045;49.410;11.030;2023-02-01T13:33:49;98241.38;;;3.66;100.00
68226;BME280;55045;49.410;11.030;2023-02-01T13:37:05;98313.91;;;3.74;100.00
68226;BME280;55045;49.410;11.030;2023-02-01T13:40:17;98312.97;;;3.80;100.00
68226;BME280;55045;49.410;11.030;2023-02-01T13:43:27;98299.50;;;3.69;100.00
68226;BME280;55045;49.410;11.030;2023-02-01T13:46:40;98311.19;;;3.84;100.00
68226;BME280;55045;49.410;11.030;2023-02-01T13:49:44;98300.03;;;3.85;100.00
68226;BME280;55045;49.410;11.030;2023-02-01T13:52:52;98269.91;;;3.50;100.00
68226;BME280;55045;49.410;11.030;2023-02-01T13:55:59;98336.75;;;3.90;100.00
68226;BME280;55045;49.410;11.030;2023-02-01T14:03:14;98335.81;;;3.94;100.00
68226;BME280;55045;49.410;11.030;2023-02-01T14:06:39;98302.34;;;3.98;100.00
68226;BME280;55045;49.410;11.030;2023-02-01T14:09:44;98248.88;;;3.79;100.00
68226;BME280;55045;49.410;11.030;2023-02-01T14:12:48;98259.81;;;3.87;100.00
68226;BME280;55045;49.410;11.030;2023-02-01T14:16:11;98282.56;;;4.05;100.00
68226;BME280;55045;49.410;11.030;2023-02-01T14:19:22;98280.16;;;3.96;100.00
68226;BME280;55045;49.410;11.030;2023-02-01T14:22:33;98274.13;;;4.00;100.00
68226;BME280;55045;49.410;11.030;2023-02-01T14:25:37;98273.44;;;3.90;100.00
68226;BME280;55045;49.410;11.030;2023-02-01T14:28:47;98220.84;;;3.68;100.00
68226;BME280;55045;49.410;11.030;2023-02-01T14:31:59;98298.13;;;3.96;100.00
68226;BME280;55045;49.410;11.030;2023-02-01T14:35:16;98276.03;;;3.87;100.00
68226;BME280;55045;49.410;11.030;2023-02-01T14:38:21;98272.81;;;3.79;100.00
68226;BME280;55045;49.410;11.030;2023-02-01T14:41:30;98238.78;;;3.69;100.00
68226;BME280;55045;49.410;11.030;2023-02-01T14:44:36;98288.88;;;3.89;100.00
68226;BME280;55045;49.410;11.030;2023-02-01T14:47:39;98258.34;;;3.73;100.00
68226;BME280;55045;49.410;11.030;2023-02-01T14:50:47;98301.91;;;3.76;100.00
68226;BME280;55045;49.410;11.030;2023-02-01T14:53:52;98253.72;;;3.47;100.00
68226;BME280;55045;49.410;11.030;2023-02-01T14:56:57;98242.72;;;3.41;100.00
68226;BME280;55045;49.410;11.030;2023-02-01T15:00:08;98245.16;;;3.49;100.00
68226;BME280;55045;49.410;11.030;2023-02-01T15:03:25;98273.78;;;3.72;100.00
68226;BME280;55045;49.410;11.030;2023-02-01T15:06:38;98273.00;;;3.68;100.00
68226;BME280;55045;49.410;11.030;2023-02-01T15:09:44;98254.41;;;3.56;100.00
68226;BME280;55045;49.410;11.030;2023-02-01T15:12:50;98239.19;;;3.48;100.00
68226;BME280;55045;49.410;11.030;2023-02-01T15:16:05;98266.16;;;3.67;100.00
68226;BME280;55045;49.410;11.030;2023-02-01T15:19:13;98181.56;;;3.20;100.00
68226;BME280;55045;49.410;11.030;2023-02-01T15:22:19;98263.53;;;3.72;100.00
68226;BME280;55045;49.410;11.030;2023-02-01T15:25:25;98250.06;;;3.61;100.00
68226;BME280;55045;49.410;11.030;2023-02-01T15:28:28;98258.28;;;3.78;100.00
68226;BME280;55045;49.410;11.030;2023-02-01T15:31:34;98157.63;;;3.21;100.00
68226;BME280;55045;49.410;11.030;2023-02-01T15:34:45;98242.94;;;3.75;100.00
68226;BME280;55045;49.410;11.030;2023-02-01T15:37:51;98238.88;;;3.63;100.00
68226;BME280;55045;49.410;11.030;2023-02-01T15:40:56;98221.81;;;3.62;100.00
68226;BME280;55045;49.410;11.030;2023-02-01T15:44:04;98231.81;;;3.74;100.00
68226;BME280;55045;49.410;11.030;2023-02-01T15:47:15;98120.78;;;3.26;100.00
68226;BME280;55045;49.410;11.030;2023-02-01T15:50:19;98199.75;;;3.54;100.00
68226;BME280;55045;49.410;11.030;2023-02-01T15:53:29;98202.00;;;3.70;100.00
68226;BME280;55045;49.410;11.030;2023-02-01T15:56:34;98222.41;;;3.75;100.00
68226;BME280;55045;49.410;11.030;2023-02-01T15:59:43;98187.81;;;3.51;100.00
68226;BME280;55045;49.410;11.030;2023-02-01T16:02:52;98209.09;;;3.58;100.00
68226;BME280;55045;49.410;11.030;2023-02-01T16:05:58;98236.97;;;3.74;100.00
68226;BME280;55045;49.410;11.030;2023-02-01T16:09:11;98200.56;;;3.54;100.00
68226;BME280;55045;49.410;11.030;2023-02-01T16:12:32;98230.13;;;3.73;100.00
68226;BME280;55045;49.410;11.030;2023-02-01T16:15:37;98209.97;;;3.55;100.00
68226;BME280;55045;49.410;11.030;2023-02-01T16:18:41;98231.91;;;3.71;100.00
68226;BME280;55045;49.410;11.030;2023-02-01T16:21:44;98235.34;;;3.70;100.00
68226;BME280;55045;49.410;11.030;2023-02-01T16:24:50;98234.63;;;3.62;100.00
68226;BME280;55045;49.410;11.030;2023-02-01T16:27:54;98236.13;;;3.74;100.00
68226;BME280;55045;49.410;11.030;2023-02-01T16:34:27;98221.88;;;3.59;100.00
68226;BME280;55045;49.410;11.030;2023-02-01T16:37:31;98216.69;;;3.62;100.00
68226;BME280;55045;49.410;11.030;2023-02-01T16:40:36;98231.78;;;3.76;100.00